Terminal Aerodrome Forecast
Issued by NWS Charleston, WV

Current Version | Previous Version | Graphics & Text | Print | Product List | Glossary On
Versions: 1 2 3 4 5 6 7 8 9 10 11 12 13 14 15 16 17 18 19 20 21 22 23
000
FTUS41 KRLX 170825 AAA
TAFEKN
TAF AMD
KEKN 170825Z 1708/1806 32003KT 6SM BR BKN035
      TEMPO 1709/1713 1SM BR FEW001 SCT030
     FM171400 15003KT P6SM FEW025 BKN150
     FM171900 18004KT P6SM -RA OVC150
     FM180200 24004KT 3SM -RASN OVC008=

USA.gov is the U.S. government's official web portal to all federal, state and local government web resources and services.